Forside
METAR-TAF:

METAR-TAF

Lufthavne :

Københavns Lufthavn

København, Danmark

Breddekreds: 55-37N, længdekreds: 012-39E, højde: 5 m

Aktuelle vejr

Denne rapport blev lavet for 12 minutter siden, kl. 14:50 UTC
Vind 7 kt fra sydsydøst
Temperatur 12°C
Fugtighed 54%
Tryk 1024 hPa
Sigt 10 km eller mere

METAR: EKCH 081450Z AUTO 15007KT 9999 FEW063/// 12/03 Q1024 NOSIG

Tid: 17:02 (15:02 UTC)

Vejrudsigter

Denne rapport blev lavet for 3 timer og 52 minutter siden, kl. 11:10 UTC
Foreløbig gælder fra 08 på 12 UTC til 09 på 12 UTC
Vind 10 kt fra syd
Sigt 10 km eller mere
ingen skyer under 1500m og ingen cumulonimbus
ændring
fra 08 på 21 UTC til 08 på 24 UTC
Vind 12 kt fra vestnordvest
Midlertidig
fra 09 på 03 UTC til 09 på 06 UTC
Brudte skyer i en højde af 1200 ft
Midlertidig
fra 09 på 09 UTC til 09 på 12 UTC
Vind 15 kt fra nordvest med vindstød på up til 27 kt

TAF: EKCH 081110Z 0812/0912 17010KT CAVOK BECMG 0821/0824 30012KT TEMPO 0903/0906 BKN012 TEMPO 0909/0912 32015G27KT

Vejrobservationer og prognoser fra mere end 4000 lufthavne (METAR og TAF).

De gule og røde prikker repræsenterer de meteorologiske stationer.

Flyt musen over at se navnet på stationen.

Så klik over at se vejr observationer og prognoser.

At skifte det kort: Klik på de grønne knapper med et sort kors for at zoome ind; på den grønne knap med en bindestreg for at zoome ud; eller på de grønne pile for tilstødende kort.


METAR-TAF: